Ravels, Belgium
Current Conditions -  °F | °C
As of 2:33 AM on Monday 24 Nov 2014 (Local Time) from EHGR Reporting Station
Light Rain Light Rain  
Wind Chill: 46°   Ceiling: 800
Heat Index: 48°   Visibility: 6mi
Dew Point: 48°   Wind: 6mph
Humidity: 100%   Direction: 290°WNW
Pressure: 30.06"   Gusts: NA
Location:  51.37°N, 4.99°E
Report Text: EHGR 240133Z AUTO 29005KT 9999 -RA FEW005 SCT007 BKN008 09/09 Q1018 GRN
Loading
Personal Weather Stations






























Interactive Weather Map New forecast layout! Learn more

10-Day Weather Forecast

Advertisements
Track Severe Weather on mobile